createdAt,value
2018-05-18T00:01:17.525Z,62.63
2018-05-18T00:03:45.985Z,63.01
2018-05-18T00:06:14.497Z,62.16
2018-05-18T00:08:42.995Z,62.41
2018-05-18T00:11:11.512Z,60.72
2018-05-18T00:13:40.084Z,61.48
2018-05-18T00:16:08.608Z,61.02
2018-05-18T00:18:37.088Z,62.00
2018-05-18T00:21:05.593Z,59.25
2018-05-18T00:23:34.118Z,61.20
2018-05-18T00:26:02.609Z,60.51
2018-05-18T00:28:31.130Z,58.95
2018-05-18T00:30:59.620Z,60.75
2018-05-18T00:33:28.133Z,60.77
2018-05-18T00:35:56.635Z,61.16
2018-05-18T00:38:25.144Z,61.25
2018-05-18T00:40:53.672Z,59.65
2018-05-18T00:43:22.175Z,59.29
2018-05-18T00:45:50.715Z,59.86
2018-05-18T00:48:19.277Z,59.95
2018-05-18T00:50:47.748Z,61.01
2018-05-18T00:53:16.257Z,62.28
2018-05-18T00:55:44.732Z,63.09
2018-05-18T00:58:13.240Z,62.72
2018-05-18T01:00:41.732Z,63.05
2018-05-18T01:03:10.287Z,63.45
2018-05-18T01:05:38.788Z,63.91
2018-05-18T01:08:07.274Z,65.11
2018-05-18T01:10:35.807Z,65.34
2018-05-18T01:13:04.374Z,65.48
2018-05-18T01:15:32.904Z,65.08
2018-05-18T01:18:01.412Z,65.45
2018-05-18T01:20:29.959Z,65.54
2018-05-18T01:22:58.492Z,66.78
2018-05-18T01:25:27.064Z,66.84
2018-05-18T01:27:55.560Z,66.75
2018-05-18T01:30:24.040Z,67.02
2018-05-18T01:32:52.609Z,65.99
2018-05-18T01:35:21.085Z,65.15
2018-05-18T01:37:49.592Z,64.38
2018-05-18T01:40:18.121Z,63.35
2018-05-18T01:42:46.661Z,62.70
2018-05-18T01:45:15.133Z,62.35
2018-05-18T01:47:43.652Z,62.61
2018-05-18T01:50:12.173Z,62.95
2018-05-18T01:52:40.640Z,63.23
2018-05-18T01:55:09.121Z,62.99
2018-05-18T01:57:37.629Z,63.33
2018-05-18T02:00:06.145Z,64.57
2018-05-18T02:02:34.700Z,64.45
2018-05-18T02:05:03.222Z,64.54
2018-05-18T02:07:31.742Z,63.85
2018-05-18T02:10:00.276Z,63.94
2018-05-18T02:12:28.756Z,64.20
2018-05-18T02:14:57.252Z,64.44
2018-05-18T02:17:25.760Z,64.57
2018-05-18T02:19:54.217Z,64.49
2018-05-18T02:22:22.725Z,64.61
2018-05-18T02:24:51.240Z,65.04
2018-05-18T02:27:19.717Z,65.12
2018-05-18T02:29:48.232Z,65.22
2018-05-18T02:32:16.714Z,65.69
2018-05-18T02:34:45.229Z,65.75
2018-05-18T02:37:13.722Z,65.49
2018-05-18T02:39:42.253Z,65.29
2018-05-18T02:42:10.793Z,65.59
2018-05-18T02:44:39.312Z,65.60
2018-05-18T02:47:07.860Z,65.54
2018-05-18T02:49:36.390Z,64.97
2018-05-18T02:52:04.933Z,64.86
2018-05-18T02:54:33.462Z,64.37
2018-05-18T02:57:01.976Z,64.12
2018-05-18T02:59:30.519Z,63.47
2018-05-18T03:01:59.006Z,62.73
2018-05-18T03:04:27.520Z,62.34
2018-05-18T03:06:55.977Z,62.43
2018-05-18T03:09:24.476Z,61.54
2018-05-18T03:11:53.025Z,60.78
2018-05-18T03:14:21.524Z,61.15
2018-05-18T03:16:50.017Z,61.07
2018-05-18T03:19:18.547Z,61.18
2018-05-18T03:21:47.086Z,61.59
2018-05-18T03:24:15.567Z,62.05
2018-05-18T03:26:44.094Z,62.38
2018-05-18T03:29:12.601Z,61.98
2018-05-18T03:31:41.105Z,62.17
2018-05-18T03:34:09.572Z,62.82
2018-05-18T03:36:38.076Z,62.53
2018-05-18T03:39:06.627Z,63.24
2018-05-18T03:41:35.149Z,63.04
2018-05-18T03:44:03.634Z,63.20
2018-05-18T03:46:32.156Z,63.22
2018-05-18T03:49:00.632Z,62.67
2018-05-18T03:51:29.144Z,62.20
2018-05-18T03:53:57.617Z,61.34
2018-05-18T03:56:26.133Z,60.80
2018-05-18T03:58:54.604Z,60.45
2018-05-18T04:01:34.829Z,59.73
2018-05-18T04:04:14.904Z,59.14
2018-05-18T04:06:55.012Z,58.51
2018-05-18T04:09:23.509Z,57.14
2018-05-18T04:11:51.989Z,55.57
2018-05-18T04:14:20.500Z,55.68
2018-05-18T04:16:49.049Z,54.87
2018-05-18T04:19:17.596Z,54.28
2018-05-18T04:21:46.090Z,53.32
2018-05-18T04:24:14.577Z,52.59
2018-05-18T04:26:43.088Z,52.48
2018-05-18T04:29:11.580Z,52.58
2018-05-18T04:31:40.112Z,51.87
2018-05-18T04:34:08.616Z,51.63
2018-05-18T04:36:37.102Z,50.83
2018-05-18T04:39:06.460Z,50.30
2018-05-18T04:41:34.960Z,50.66
2018-05-18T04:44:03.472Z,50.23
2018-05-18T04:46:31.980Z,48.92
2018-05-18T04:49:00.500Z,48.74
2018-05-18T04:51:29.001Z,48.17
2018-05-18T04:53:57.530Z,48.57
2018-05-18T04:56:26.011Z,48.72
2018-05-18T04:58:54.548Z,49.17
2018-05-18T05:01:23.041Z,48.94
2018-05-18T05:03:51.564Z,47.85
2018-05-18T05:06:20.040Z,47.83
2018-05-18T05:08:48.508Z,46.09
2018-05-18T05:11:17.035Z,46.48
2018-05-18T05:13:45.532Z,45.18
2018-05-18T05:16:14.056Z,44.52
2018-05-18T05:18:42.580Z,43.55
2018-05-18T05:21:11.070Z,43.25
2018-05-18T05:23:39.652Z,42.92
2018-05-18T05:26:08.093Z,44.09
2018-05-18T05:28:36.619Z,44.54
2018-05-18T05:31:05.379Z,43.14
2018-05-18T05:33:33.908Z,43.56
2018-05-18T05:36:02.410Z,41.76
2018-05-18T05:38:30.887Z,41.25
2018-05-18T05:40:59.501Z,41.04
2018-05-18T05:43:28.020Z,41.00
2018-05-18T05:45:56.533Z,41.31
2018-05-18T05:48:25.045Z,41.65
2018-05-18T05:50:53.526Z,40.36
2018-05-18T05:53:22.028Z,40.80
2018-05-18T05:55:50.540Z,40.38
2018-05-18T05:58:19.016Z,40.49
2018-05-18T06:00:47.542Z,40.47
2018-05-18T06:03:16.061Z,39.70
2018-05-18T06:05:44.541Z,39.82
2018-05-18T06:08:13.048Z,40.55
2018-05-18T06:10:41.528Z,39.30
2018-05-18T06:13:10.068Z,38.54
2018-05-18T06:15:38.553Z,38.79
2018-05-18T06:18:07.076Z,38.67
2018-05-18T06:20:35.598Z,39.09
2018-05-18T06:23:04.170Z,38.29
2018-05-18T06:25:32.680Z,37.59
2018-05-18T06:28:01.190Z,36.91
2018-05-18T06:30:29.705Z,37.08
2018-05-18T06:32:58.221Z,37.51
2018-05-18T06:35:26.694Z,37.09
2018-05-18T06:37:55.249Z,37.54
2018-05-18T06:40:23.757Z,37.37
2018-05-18T06:42:52.265Z,38.04
2018-05-18T06:45:20.805Z,37.31
2018-05-18T06:47:49.348Z,37.13
2018-05-18T06:50:17.844Z,37.03
2018-05-18T06:52:46.373Z,36.62
2018-05-18T06:55:14.899Z,36.24
2018-05-18T06:57:43.428Z,35.50
2018-05-18T07:00:11.971Z,36.48
2018-05-18T07:02:40.533Z,36.18
2018-05-18T07:05:09.039Z,35.81
2018-05-18T07:07:37.524Z,36.19
2018-05-18T07:10:06.089Z,36.39
2018-05-18T07:12:34.634Z,35.71
2018-05-18T07:15:03.343Z,35.82
2018-05-18T07:17:31.832Z,35.16
2018-05-18T07:20:00.376Z,35.55
2018-05-18T07:22:28.859Z,34.69
2018-05-18T07:24:57.364Z,34.36
2018-05-18T07:27:25.885Z,34.11
2018-05-18T07:29:54.402Z,34.04
2018-05-18T07:32:22.964Z,34.25
2018-05-18T07:34:51.499Z,34.75
2018-05-18T07:37:19.988Z,34.48
2018-05-18T07:39:48.504Z,33.43
2018-05-18T07:42:17.041Z,33.52
2018-05-18T07:44:45.546Z,33.42
2018-05-18T07:47:14.026Z,33.61
2018-05-18T07:49:42.682Z,33.54
2018-05-18T07:52:11.239Z,33.93
2018-05-18T07:54:39.768Z,34.04
2018-05-18T07:57:08.245Z,33.29
2018-05-18T07:59:36.772Z,33.15
2018-05-18T08:02:05.281Z,33.18
2018-05-18T08:04:33.833Z,33.77
2018-05-18T08:07:02.309Z,33.99
2018-05-18T08:09:30.820Z,33.91
2018-05-18T08:11:59.301Z,33.83
2018-05-18T08:14:27.837Z,33.30
2018-05-18T08:16:56.301Z,34.37
2018-05-18T08:19:24.842Z,34.85
2018-05-18T08:21:53.401Z,34.65
2018-05-18T08:24:21.879Z,34.91
2018-05-18T08:27:02.182Z,34.55
2018-05-18T08:29:36.421Z,34.94
2018-05-18T08:32:05.109Z,35.29
2018-05-18T08:34:33.616Z,35.01
2018-05-18T08:37:02.150Z,35.67
2018-05-18T08:39:30.629Z,35.19
2018-05-18T08:41:59.122Z,36.12
2018-05-18T08:44:27.749Z,35.62
2018-05-18T08:46:56.221Z,36.23
2018-05-18T08:49:24.724Z,36.01
2018-05-18T08:51:53.233Z,35.55
2018-05-18T08:54:21.787Z,36.18
2018-05-18T08:56:50.361Z,35.99
2018-05-18T08:59:18.871Z,35.44
2018-05-18T09:01:47.344Z,35.13
2018-05-18T09:04:15.925Z,35.57
2018-05-18T09:06:44.517Z,36.21
2018-05-18T09:09:13.024Z,35.42
2018-05-18T09:11:41.504Z,35.76
2018-05-18T09:14:10.013Z,36.01
2018-05-18T09:16:38.519Z,35.89
2018-05-18T09:19:07.047Z,36.86
2018-05-18T09:21:35.573Z,36.38
2018-05-18T09:24:04.089Z,36.69
2018-05-18T09:26:32.654Z,36.82
2018-05-18T09:29:01.164Z,37.42
2018-05-18T09:31:29.781Z,36.96
2018-05-18T09:33:58.295Z,37.28
2018-05-18T09:36:26.836Z,37.50
2018-05-18T09:38:55.325Z,36.81
2018-05-18T09:41:23.820Z,37.07
2018-05-18T09:43:52.331Z,37.74
2018-05-18T09:46:20.809Z,38.36
2018-05-18T09:48:49.796Z,37.96
2018-05-18T09:51:18.321Z,37.81
2018-05-18T09:53:46.838Z,37.97
2018-05-18T09:56:15.410Z,38.15
2018-05-18T09:58:43.921Z,37.33
2018-05-18T10:01:12.397Z,38.29
2018-05-18T10:03:40.929Z,37.92
2018-05-18T10:06:09.441Z,38.48
2018-05-18T10:08:37.960Z,37.73
2018-05-18T10:11:06.500Z,37.95
2018-05-18T10:13:34.961Z,37.46
2018-05-18T10:16:03.434Z,36.09
2018-05-18T10:18:32.026Z,35.20
2018-05-18T10:21:00.484Z,33.81
2018-05-18T10:23:29.008Z,34.16
2018-05-18T10:25:57.518Z,33.79
2018-05-18T10:28:27.248Z,33.33
2018-05-18T10:30:55.768Z,33.45
2018-05-18T10:33:24.280Z,33.39
2018-05-18T10:35:52.756Z,33.49
2018-05-18T10:38:21.319Z,33.08
2018-05-18T10:40:49.798Z,33.50
2018-05-18T10:43:18.357Z,32.64
2018-05-18T10:45:46.886Z,32.49
2018-05-18T10:48:15.401Z,32.65
2018-05-18T10:50:44.593Z,32.54
2018-05-18T10:53:13.188Z,32.93
2018-05-18T10:55:41.732Z,33.22
2018-05-18T10:58:10.237Z,33.15
2018-05-18T11:00:38.722Z,32.86
2018-05-18T11:03:07.255Z,32.78
2018-05-18T11:05:35.814Z,33.00
2018-05-18T11:08:04.425Z,33.11
2018-05-18T11:10:32.989Z,33.13
2018-05-18T11:13:01.473Z,33.50
2018-05-18T11:15:30.052Z,33.98
2018-05-18T11:17:58.572Z,34.05
2018-05-18T11:20:27.094Z,34.60
2018-05-18T11:22:55.617Z,33.79
2018-05-18T11:25:24.110Z,33.71
2018-05-18T11:27:52.645Z,33.89
2018-05-18T11:30:21.163Z,34.45
2018-05-18T11:32:49.693Z,34.10
2018-05-18T11:35:18.188Z,34.15
2018-05-18T11:37:46.680Z,34.32
2018-05-18T11:40:15.232Z,34.81
2018-05-18T11:42:43.811Z,34.73
2018-05-18T11:45:12.338Z,34.64
2018-05-18T11:47:40.837Z,34.86
2018-05-18T11:50:09.380Z,34.53
2018-05-18T11:52:37.894Z,35.27
2018-05-18T11:55:06.433Z,34.83
2018-05-18T11:57:34.904Z,34.61
2018-05-18T12:00:03.432Z,33.95
2018-05-18T12:02:31.973Z,33.93
2018-05-18T12:05:00.514Z,33.73
2018-05-18T12:07:28.997Z,34.27
2018-05-18T12:09:57.524Z,35.47
2018-05-18T12:12:26.066Z,35.27
2018-05-18T12:14:54.722Z,35.08
2018-05-18T12:17:23.243Z,34.74
2018-05-18T12:19:51.730Z,34.41
2018-05-18T12:22:20.241Z,34.63
2018-05-18T12:24:48.726Z,33.89
2018-05-18T12:27:17.255Z,33.95
2018-05-18T12:29:45.802Z,34.21
2018-05-18T12:32:14.276Z,33.97
2018-05-18T12:34:42.795Z,34.00
2018-05-18T12:37:11.273Z,34.05
2018-05-18T12:39:39.825Z,33.87
2018-05-18T12:42:08.312Z,33.58
2018-05-18T12:44:36.845Z,34.13
2018-05-18T12:47:05.363Z,34.65
2018-05-18T12:49:33.920Z,35.02
2018-05-18T12:52:02.426Z,34.54
2018-05-18T12:54:30.949Z,34.26
2018-05-18T12:56:59.488Z,34.43
2018-05-18T12:59:28.046Z,34.23
2018-05-18T13:01:56.537Z,34.40
2018-05-18T13:04:25.097Z,34.58
2018-05-18T13:06:53.616Z,34.74
2018-05-18T13:09:22.136Z,34.62
2018-05-18T13:11:50.613Z,34.99
2018-05-18T13:14:19.124Z,34.52
2018-05-18T13:19:15.161Z,34.68
2018-05-18T13:21:43.673Z,34.47
2018-05-18T13:24:12.184Z,34.10
2018-05-18T13:26:40.764Z,34.68
2018-05-18T13:29:09.262Z,34.42
2018-05-18T13:31:37.792Z,34.48
2018-05-18T13:34:06.338Z,33.56
2018-05-18T13:36:34.829Z,33.67
2018-05-18T13:39:03.429Z,33.94
2018-05-18T13:41:32.008Z,34.16
2018-05-18T13:44:00.519Z,34.19
2018-05-18T13:46:29.078Z,34.51
2018-05-18T13:48:57.557Z,34.10
2018-05-18T13:51:26.080Z,34.54
2018-05-18T13:53:54.563Z,34.42
2018-05-18T13:56:23.080Z,34.74
2018-05-18T13:58:51.566Z,34.80
2018-05-18T14:01:20.076Z,34.30
2018-05-18T14:03:48.585Z,34.68
2018-05-18T14:06:17.114Z,34.94
2018-05-18T14:08:45.628Z,34.25
2018-05-18T14:11:14.082Z,34.40
2018-05-18T14:13:42.586Z,34.51
2018-05-18T14:16:11.073Z,33.83
2018-05-18T14:18:39.583Z,33.80
2018-05-18T14:21:08.064Z,34.22
2018-05-18T14:23:36.572Z,34.07
2018-05-18T14:26:05.130Z,34.60
2018-05-18T14:28:33.608Z,34.52
2018-05-18T14:31:02.112Z,33.75
2018-05-18T14:33:30.649Z,34.33
2018-05-18T14:35:59.132Z,34.51
2018-05-18T14:38:27.649Z,34.43
2018-05-18T14:40:56.149Z,35.11
2018-05-18T14:43:24.657Z,35.35
2018-05-18T14:45:53.144Z,34.53
2018-05-18T14:48:21.657Z,34.65
2018-05-18T14:50:50.118Z,34.86
2018-05-18T14:53:18.641Z,34.72
2018-05-18T14:55:47.126Z,34.83
2018-05-18T14:58:15.696Z,34.70
2018-05-18T15:00:44.190Z,34.65
2018-05-18T15:03:12.668Z,34.41
2018-05-18T15:05:41.272Z,35.06
2018-05-18T15:08:09.696Z,34.51
2018-05-18T15:10:38.216Z,34.53
2018-05-18T15:13:06.689Z,35.82
2018-05-18T15:15:35.224Z,36.63
2018-05-18T15:18:03.753Z,35.32
2018-05-18T15:20:32.272Z,36.37
2018-05-18T15:23:00.754Z,36.64
2018-05-18T15:25:29.281Z,36.76
2018-05-18T15:27:57.753Z,37.06
2018-05-18T15:30:26.236Z,37.14
2018-05-18T15:32:54.742Z,39.25
2018-05-18T15:35:23.257Z,40.78
2018-05-18T15:37:51.775Z,41.29
2018-05-18T15:40:20.293Z,41.84
2018-05-18T15:42:48.972Z,42.46
2018-05-18T15:45:17.518Z,42.31
2018-05-18T15:47:45.998Z,42.68
2018-05-18T15:50:14.517Z,42.61
2018-05-18T15:52:42.987Z,42.38
2018-05-18T15:55:11.527Z,40.48
2018-05-18T15:57:40.046Z,40.36
2018-05-18T16:00:08.533Z,38.64
2018-05-18T16:02:37.060Z,42.27
2018-05-18T16:05:05.543Z,41.97
2018-05-18T16:07:34.064Z,41.24
2018-05-18T16:10:02.532Z,41.36
2018-05-18T16:12:31.066Z,41.91
2018-05-18T16:14:59.590Z,42.13
2018-05-18T16:17:28.062Z,42.61
2018-05-18T16:19:56.585Z,42.80
2018-05-18T16:22:25.053Z,43.73
2018-05-18T16:24:53.533Z,43.68
2018-05-18T16:27:22.048Z,43.17
2018-05-18T16:29:50.517Z,43.54
2018-05-18T16:32:19.029Z,43.57
2018-05-18T16:34:47.534Z,44.27
2018-05-18T16:37:16.000Z,44.04
2018-05-18T16:39:44.512Z,44.34
2018-05-18T16:42:13.000Z,44.01
2018-05-18T16:44:41.563Z,44.10
2018-05-18T16:47:10.196Z,43.93
2018-05-18T16:49:38.664Z,43.86
2018-05-18T16:52:07.114Z,43.70
2018-05-18T16:54:35.624Z,43.65
2018-05-18T16:57:04.110Z,43.76
2018-05-18T16:59:32.602Z,43.32
2018-05-18T17:02:01.064Z,43.71
2018-05-18T17:04:29.584Z,43.79
2018-05-18T17:06:58.063Z,43.61
2018-05-18T17:09:26.597Z,43.68
2018-05-18T17:11:55.057Z,43.89
2018-05-18T17:14:23.568Z,43.81
2018-05-18T17:16:52.014Z,43.74
2018-05-18T17:19:20.551Z,43.87
2018-05-18T17:21:49.033Z,43.96
2018-05-18T17:24:17.520Z,44.28
2018-05-18T17:26:45.960Z,44.51
2018-05-18T17:29:14.465Z,44.68
2018-05-18T17:31:42.988Z,44.72
2018-05-18T17:34:11.482Z,45.17
2018-05-18T17:36:39.990Z,45.13
2018-05-18T17:39:08.525Z,45.26
2018-05-18T17:41:36.992Z,45.41
2018-05-18T17:44:05.452Z,45.45
2018-05-18T17:46:33.939Z,46.19
2018-05-18T17:49:02.450Z,46.65
2018-05-18T17:51:30.953Z,47.66
2018-05-18T17:53:59.411Z,51.75
2018-05-18T17:56:27.912Z,50.20
2018-05-18T17:58:56.372Z,50.39
2018-05-18T18:01:24.930Z,50.44
2018-05-18T18:03:53.414Z,50.50
2018-05-18T18:06:22.120Z,52.88
2018-05-18T18:08:51.317Z,54.25
2018-05-18T18:11:19.787Z,55.00
2018-05-18T18:13:48.289Z,57.12
2018-05-18T18:16:16.773Z,59.73
2018-05-18T18:18:46.106Z,58.78
2018-05-18T18:21:14.612Z,61.36
2018-05-18T18:23:43.075Z,64.67
2018-05-18T18:26:11.525Z,63.82
2018-05-18T18:28:40.124Z,63.04
2018-05-18T18:31:08.534Z,61.60
2018-05-18T18:33:37.008Z,61.84
2018-05-18T18:36:05.481Z,62.29
2018-05-18T18:38:33.932Z,64.16
2018-05-18T18:41:02.431Z,61.77
2018-05-18T18:43:30.867Z,61.80
2018-05-18T18:45:59.370Z,62.25
2018-05-18T18:48:27.846Z,62.48
2018-05-18T18:50:56.336Z,63.75
2018-05-18T18:53:24.788Z,64.51
2018-05-18T18:55:53.261Z,64.95
2018-05-18T18:58:21.740Z,63.98
2018-05-18T19:00:50.235Z,63.14
2018-05-18T19:03:18.721Z,63.11
2018-05-18T19:05:47.150Z,64.49
2018-05-18T19:08:15.644Z,64.41
2018-05-18T19:10:44.097Z,66.83
2018-05-18T19:13:12.588Z,64.89
2018-05-18T19:15:41.058Z,64.84
2018-05-18T19:18:09.541Z,65.33
2018-05-18T19:20:38.001Z,66.46
2018-05-18T19:23:06.472Z,66.76
2018-05-18T19:25:34.933Z,67.98
2018-05-18T19:28:03.408Z,68.66
2018-05-18T19:30:31.941Z,67.41
2018-05-18T19:33:00.431Z,66.79
2018-05-18T19:35:28.974Z,67.30
2018-05-18T19:37:57.430Z,67.40
2018-05-18T19:40:25.932Z,67.18
2018-05-18T19:42:54.412Z,67.38
2018-05-18T19:45:22.896Z,68.23
2018-05-18T19:47:51.350Z,68.22
2018-05-18T19:50:19.832Z,68.62
2018-05-18T19:52:48.329Z,68.69
2018-05-18T19:55:16.781Z,69.14
2018-05-18T19:57:45.248Z,69.21
2018-05-18T20:00:13.725Z,68.44
2018-05-18T20:02:42.205Z,69.50
2018-05-18T20:05:10.661Z,68.81
2018-05-18T20:07:39.144Z,69.61
2018-05-18T20:10:07.597Z,69.17
2018-05-18T20:12:36.094Z,69.42
2018-05-18T20:15:04.572Z,69.40
2018-05-18T20:17:33.053Z,70.28
2018-05-18T20:20:01.534Z,68.45
2018-05-18T20:22:29.976Z,68.75
2018-05-18T20:24:58.533Z,68.52
2018-05-18T20:27:26.987Z,68.14
2018-05-18T20:29:55.472Z,68.47
2018-05-18T20:32:23.977Z,68.13
2018-05-18T20:34:52.474Z,68.31
2018-05-18T20:37:20.964Z,68.54
2018-05-18T20:39:49.404Z,68.45
2018-05-18T20:42:17.897Z,67.47
2018-05-18T20:44:46.433Z,67.49
2018-05-18T20:47:14.877Z,67.53
2018-05-18T20:49:43.348Z,68.02
2018-05-18T20:52:11.855Z,68.06
2018-05-18T20:54:40.300Z,67.91
2018-05-18T20:57:08.784Z,68.05
2018-05-18T20:59:37.258Z,68.22
2018-05-18T21:02:05.764Z,68.74
2018-05-18T21:04:34.208Z,69.34
2018-05-18T21:07:02.729Z,70.80
2018-05-18T21:09:31.246Z,70.74
2018-05-18T21:11:59.738Z,70.85
2018-05-18T21:14:28.193Z,70.77
2018-05-18T21:16:56.693Z,70.76
2018-05-18T21:19:25.161Z,69.50
2018-05-18T21:21:53.680Z,69.28
2018-05-18T21:24:22.151Z,69.22
2018-05-18T21:26:50.641Z,69.51
2018-05-18T21:29:19.120Z,68.52
2018-05-18T21:31:47.564Z,68.24
2018-05-18T21:34:16.082Z,68.02
2018-05-18T21:36:44.591Z,68.08
2018-05-18T21:39:13.032Z,67.58
2018-05-18T21:41:41.512Z,67.85
2018-05-18T21:44:09.973Z,67.48
2018-05-18T21:46:38.457Z,68.17
2018-05-18T21:49:06.989Z,67.62
2018-05-18T21:51:35.438Z,67.37
2018-05-18T21:54:03.946Z,65.77
2018-05-18T21:56:32.458Z,65.24
2018-05-18T21:59:00.901Z,66.25
2018-05-18T22:01:29.409Z,64.12
2018-05-18T22:03:57.880Z,64.23
2018-05-18T22:06:26.409Z,63.82
2018-05-18T22:08:54.830Z,63.72
2018-05-18T22:11:23.336Z,62.79
2018-05-18T22:13:51.784Z,61.35
2018-05-18T22:16:20.304Z,62.22
2018-05-18T22:18:48.852Z,61.19
2018-05-18T22:21:17.332Z,61.22
2018-05-18T22:23:45.832Z,61.67
2018-05-18T22:26:14.304Z,61.31
2018-05-18T22:28:42.788Z,61.66
2018-05-18T22:31:11.258Z,60.74
2018-05-18T22:33:39.761Z,60.87
2018-05-18T22:36:08.233Z,61.00
2018-05-18T22:38:36.769Z,61.75
2018-05-18T22:41:05.217Z,61.68
2018-05-18T22:43:33.732Z,62.89
2018-05-18T22:46:02.161Z,63.08
2018-05-18T22:48:30.652Z,63.42
2018-05-18T22:50:59.137Z,62.19
2018-05-18T22:53:27.648Z,60.89
2018-05-18T22:55:56.156Z,60.49
2018-05-18T22:58:24.607Z,60.67
2018-05-18T23:00:53.092Z,60.84
2018-05-18T23:03:21.573Z,62.00
2018-05-18T23:05:50.108Z,62.76
2018-05-18T23:08:18.576Z,63.12
2018-05-18T23:10:47.112Z,63.25
2018-05-18T23:13:15.681Z,64.41
2018-05-18T23:15:44.160Z,64.15
2018-05-18T23:18:12.684Z,65.28
2018-05-18T23:20:41.189Z,65.27
2018-05-18T23:23:09.670Z,65.78
2018-05-18T23:25:38.198Z,64.96
2018-05-18T23:28:06.693Z,65.76
2018-05-18T23:30:35.208Z,66.78
2018-05-18T23:33:03.688Z,66.96
2018-05-18T23:35:32.164Z,66.22
2018-05-18T23:38:00.683Z,66.30
2018-05-18T23:40:29.162Z,66.26
2018-05-18T23:42:57.707Z,66.29
2018-05-18T23:45:26.191Z,66.68
2018-05-18T23:47:54.759Z,66.66
2018-05-18T23:50:23.236Z,67.42
2018-05-18T23:52:51.748Z,68.98
2018-05-18T23:55:20.229Z,67.90
2018-05-18T23:57:48.705Z,67.63
